Time;durP1;ratioP1;P1;durP2;ratioP2;P2;SDS_P1;SDS_P2;PMS_P1;PMS_P2;Temp;Humidity;BMP_temperature;BMP_pressure;BME280_temperature;BME280_humidity;BME280_pressure;Samples;Min_cycle;Max_cycle;Signal;HPM_P1;HPM_P2
2023/06/22 00:00:44;;;;;;;13.07;8.68;;;;;;;;;;2527079;23;20013;-67
2023/06/22 00:02:05;;;;;;;12.00;8.88;;;;;;;;;;2532575;23;20014;-67
2023/06/22 00:03:26;;;;;;;17.52;9.43;;;;;;;;;;2531756;23;20025;-67
2023/06/22 00:04:47;;;;;;;13.02;8.35;;;;;;;;;;2531016;23;20459;-67
2023/06/22 00:06:08;;;;;;;12.07;8.05;;;;;;;;;;2532494;23;20018;-67
2023/06/22 00:07:29;;;;;;;14.73;8.75;;;;;;;;;;2531870;23;20014;-67
2023/06/22 00:08:49;;;;;;;15.40;8.50;;;;;;;;;;2518092;23;20196;-68
2023/06/22 00:10:10;;;;;;;11.50;7.82;;;;;;;;;;2524459;23;20344;-68
2023/06/22 00:11:33;;;;;;;13.05;8.48;;;;;;;;;;2517270;23;20018;-69
2023/06/22 00:12:54;;;;;;;9.82;7.50;;;;;;;;;;2527198;23;20348;-68
2023/06/22 00:14:14;;;;;;;16.63;9.23;;;;;;;;;;2518243;23;20014;-67
2023/06/22 00:15:36;;;;;;;11.82;7.70;;;;;;;;;;2515164;23;20014;-68
2023/06/22 00:16:58;;;;;;;11.85;8.20;;;;;;;;;;2527614;23;20014;-68
2023/06/22 00:18:20;;;;;;;14.05;9.18;;;;;;;;;;2531673;23;20010;-68
2023/06/22 00:19:40;;;;;;;17.65;9.57;;;;;;;;;;2530330;23;20024;-69
2023/06/22 00:21:01;;;;;;;9.95;7.68;;;;;;;;;;2532554;23;20329;-68
2023/06/22 00:22:28;;;;;;;14.82;9.80;;;;;;;;;;2531631;23;20014;-68
2023/06/22 00:23:48;;;;;;;13.38;8.85;;;;;;;;;;2519826;23;20389;-68
2023/06/22 00:25:09;;;;;;;11.77;8.30;;;;;;;;;;2515542;23;20293;-69
2023/06/22 00:26:30;;;;;;;12.68;8.77;;;;;;;;;;2526610;23;20025;-69
2023/06/22 00:27:51;;;;;;;13.93;8.50;;;;;;;;;;2532584;23;20010;-68
2023/06/22 00:29:12;;;;;;;12.02;8.32;;;;;;;;;;2533281;23;20021;-68
2023/06/22 00:30:33;;;;;;;12.63;8.73;;;;;;;;;;2530800;23;20014;-68
2023/06/22 00:31:54;;;;;;;12.00;8.40;;;;;;;;;;2518212;23;20014;-69
2023/06/22 00:33:15;;;;;;;13.40;9.45;;;;;;;;;;2515516;23;20010;-69
2023/06/22 00:34:36;;;;;;;12.05;8.55;;;;;;;;;;2527366;23;20010;-68
2023/06/22 00:35:57;;;;;;;12.13;9.05;;;;;;;;;;2530854;23;20014;-69
2023/06/22 00:37:18;;;;;;;13.15;8.65;;;;;;;;;;2532492;23;20010;-69
2023/06/22 00:38:40;;;;;;;16.35;8.93;;;;;;;;;;2521134;23;20029;-69
2023/06/22 00:40:01;;;;;;;12.50;8.77;;;;;;;;;;2526841;23;20014;-69
2023/06/22 00:41:22;;;;;;;13.43;8.95;;;;;;;;;;2519033;23;20006;-68
2023/06/22 00:42:43;;;;;;;14.95;8.65;;;;;;;;;;2528079;23;20010;-69
2023/06/22 00:44:04;;;;;;;21.45;10.63;;;;;;;;;;2529268;23;20010;-68
2023/06/22 00:45:26;;;;;;;15.25;9.35;;;;;;;;;;2531701;23;20057;-69
2023/06/22 00:46:47;;;;;;;13.75;9.30;;;;;;;;;;2530740;23;20006;-69
2023/06/22 00:48:08;;;;;;;15.23;10.05;;;;;;;;;;2532637;23;20010;-68
2023/06/22 00:49:29;;;;;;;12.55;9.07;;;;;;;;;;2530621;23;20006;-68
2023/06/22 00:50:51;;;;;;;14.93;9.13;;;;;;;;;;2518516;23;20070;-69
2023/06/22 00:52:20;;;;;;;14.15;9.32;;;;;;;;;;2525639;23;20078;-68
2023/06/22 00:53:43;;;;;;;13.73;8.68;;;;;;;;;;2531841;23;20006;-68
2023/06/22 00:55:04;;;;;;;13.63;9.82;;;;;;;;;;2532443;23;20289;-68
2023/06/22 00:56:25;;;;;;;12.23;8.90;;;;;;;;;;2519638;23;20022;-69
2023/06/22 00:57:47;;;;;;;13.13;8.32;;;;;;;;;;2527843;23;20455;-69
2023/06/22 00:59:12;;;;;;;14.40;9.10;;;;;;;;;;2530485;23;20029;-69
2023/06/22 01:00:33;;;;;;;15.18;9.90;;;;;;;;;;2529215;23;20348;-69
2023/06/22 01:01:54;;;;;;;16.73;9.70;;;;;;;;;;2532103;23;20006;-69
2023/06/22 01:03:16;;;;;;;14.05;9.00;;;;;;;;;;2532678;23;20006;-69
2023/06/22 01:04:37;;;;;;;;;;;;;;;;;;2531961;23;20029;-69
2023/06/22 01:06:02;;;;;;;14.40;10.07;;;;;;;;;;2518871;23;19912;-69
2023/06/22 01:07:35;;;;;;;13.63;9.43;;;;;;;;;;2530213;23;20014;-68
2023/06/22 01:09:07;;;;;;;12.63;9.55;;;;;;;;;;2531564;23;20006;-69
2023/06/22 01:10:47;;;;;;;15.45;10.25;;;;;;;;;;2519398;23;20109;-70
2023/06/22 01:12:09;;;;;;;12.85;9.07;;;;;;;;;;2532655;23;20021;-69
2023/06/22 01:13:48;;;;;;;16.52;9.90;;;;;;;;;;2529184;23;20036;-69
2023/06/22 01:15:15;;;;;;;12.80;8.85;;;;;;;;;;2530099;23;20348;-69
2023/06/22 01:16:40;;;;;;;18.00;10.02;;;;;;;;;;2529316;23;20523;-69
2023/06/22 01:18:03;;;;;;;25.13;11.65;;;;;;;;;;2529800;23;20082;-70
2023/06/22 01:19:31;;;;;;;15.70;10.25;;;;;;;;;;2517899;23;20265;-68
2023/06/22 01:20:53;;;;;;;13.65;9.73;;;;;;;;;;2514486;23;20381;-67
2023/06/22 01:22:18;;;;;;;14.27;9.43;;;;;;;;;;2517058;23;20011;-68
2023/06/22 01:23:54;;;;;;;13.82;9.55;;;;;;;;;;2527040;23;20423;-68
2023/06/22 01:25:27;;;;;;;14.70;9.52;;;;;;;;;;2518238;23;20055;-69
2023/06/22 01:27:07;;;;;;;19.63;10.57;;;;;;;;;;2527250;23;20039;-69
2023/06/22 01:28:31;;;;;;;17.42;10.32;;;;;;;;;;2531794;23;20010;-68
2023/06/22 01:29:58;;;;;;;19.00;10.90;;;;;;;;;;2515331;23;20011;-68
2023/06/22 01:31:23;;;;;;;16.92;10.82;;;;;;;;;;2528476;23;20285;-69
2023/06/22 01:32:44;;;;;;;19.60;11.48;;;;;;;;;;2530159;23;20017;-69
2023/06/22 01:34:07;;;;;;;14.93;10.45;;;;;;;;;;2530807;23;20017;-69
2023/06/22 01:35:28;;;;;;;15.27;10.27;;;;;;;;;;2530283;23;20372;-68
2023/06/22 01:36:50;;;;;;;15.05;10.35;;;;;;;;;;2517425;23;20045;-68
2023/06/22 01:38:10;;;;;;;15.40;10.55;;;;;;;;;;2514224;23;20010;-68
2023/06/22 01:39:31;;;;;;;14.68;10.32;;;;;;;;;;2527021;23;20041;-68
2023/06/22 01:40:53;;;;;;;19.67;11.15;;;;;;;;;;2527189;23;20018;-68
2023/06/22 01:42:14;;;;;;;16.70;10.23;;;;;;;;;;2530820;23;20010;-68
2023/06/22 01:43:35;;;;;;;14.60;9.98;;;;;;;;;;2519284;23;20365;-68
2023/06/22 01:44:56;;;;;;;15.63;9.90;;;;;;;;;;2514290;23;20081;-68
2023/06/22 01:46:19;;;;;;;24.53;12.60;;;;;;;;;;2512928;23;20278;-68
2023/06/22 01:47:40;;;;;;;18.10;11.63;;;;;;;;;;2514752;23;20006;-69
2023/06/22 01:49:02;;;;;;;16.52;11.88;;;;;;;;;;2514100;23;20014;-68
2023/06/22 01:50:23;;;;;;;17.98;11.23;;;;;;;;;;2514309;23;20045;-68
2023/06/22 01:51:44;;;;;;;19.70;11.87;;;;;;;;;;2513409;23;20022;-69
2023/06/22 01:53:06;;;;;;;21.58;11.52;;;;;;;;;;2526719;23;20018;-69
2023/06/22 01:54:27;;;;;;;18.55;11.25;;;;;;;;;;2531005;23;20021;-69
2023/06/22 01:55:48;;;;;;;20.35;11.57;;;;;;;;;;2532439;23;20010;-69
2023/06/22 01:57:10;;;;;;;19.42;11.85;;;;;;;;;;2529565;23;20443;-69
2023/06/22 01:58:32;;;;;;;18.08;12.00;;;;;;;;;;2530610;23;20026;-69
2023/06/22 01:59:59;;;;;;;26.63;11.82;;;;;;;;;;2526799;23;20456;-70
2023/06/22 02:01:31;;;;;;;20.85;12.20;;;;;;;;;;2529213;23;20350;-68
2023/06/22 02:02:58;;;;;;;17.30;11.35;;;;;;;;;;2529214;23;20017;-68
2023/06/22 02:04:21;;;;;;;22.20;12.02;;;;;;;;;;2518995;23;20022;-70
2023/06/22 02:05:56;;;;;;;18.67;11.35;;;;;;;;;;2527688;23;20024;-77
2023/06/22 02:07:18;;;;;;;19.63;11.70;;;;;;;;;;2531419;23;20413;-77
2023/06/22 02:08:50;;;;;;;20.27;12.43;;;;;;;;;;2516487;23;20011;-75
2023/06/22 02:10:13;;;;;;;24.58;13.00;;;;;;;;;;2517864;23;20014;-75
2023/06/22 02:11:34;;;;;;;17.25;11.40;;;;;;;;;;2516793;23;20102;-77
2023/06/22 02:12:57;;;;;;;22.13;12.30;;;;;;;;;;2525750;23;20016;-77
2023/06/22 02:14:18;;;;;;;17.83;11.38;;;;;;;;;;2516671;23;20014;-77
2023/06/22 02:15:39;;;;;;;18.35;12.13;;;;;;;;;;2526732;23;20010;-78
2023/06/22 02:17:00;;;;;;;18.77;12.43;;;;;;;;;;2531435;23;20006;-77
2023/06/22 02:18:21;;;;;;;22.48;12.80;;;;;;;;;;2532408;23;20362;-78
2023/06/22 02:19:42;;;;;;;18.75;12.15;;;;;;;;;;2532128;23;20059;-77
2023/06/22 02:21:03;;;;;;;17.98;11.80;;;;;;;;;;2529791;23;20018;-75
2023/06/22 02:22:24;;;;;;;21.15;12.35;;;;;;;;;;2532372;23;20006;-78
2023/06/22 02:23:45;;;;;;;23.67;12.73;;;;;;;;;;2516891;23;20010;-78
2023/06/22 02:25:06;;;;;;;16.10;11.95;;;;;;;;;;2526310;23;20392;-76
2023/06/22 02:26:27;;;;;;;21.20;12.45;;;;;;;;;;2530723;23;20410;-78
2023/06/22 02:27:48;;;;;;;19.90;11.97;;;;;;;;;;2531320;23;20017;-75
2023/06/22 02:29:09;;;;;;;18.30;11.77;;;;;;;;;;2531831;23;20388;-75
2023/06/22 02:30:30;;;;;;;18.15;11.82;;;;;;;;;;2532578;23;20022;-75
2023/06/22 02:31:50;;;;;;;22.35;13.20;;;;;;;;;;2532298;23;20018;-75
2023/06/22 02:33:11;;;;;;;18.88;11.75;;;;;;;;;;2519280;23;20364;-76
2023/06/22 02:34:33;;;;;;;21.13;12.43;;;;;;;;;;2526090;23;20090;-75
2023/06/22 02:35:54;;;;;;;18.90;12.35;;;;;;;;;;2532852;23;20444;-75
2023/06/22 02:37:15;;;;;;;17.58;12.45;;;;;;;;;;2533879;23;20017;-76
2023/06/22 02:38:36;;;;;;;20.67;12.20;;;;;;;;;;2532933;23;20010;-76
2023/06/22 02:39:57;;;;;;;22.42;12.20;;;;;;;;;;2516671;23;20022;-76
2023/06/22 02:41:18;;;;;;;21.13;12.68;;;;;;;;;;2515137;23;20022;-77
2023/06/22 02:42:39;;;;;;;20.48;11.35;;;;;;;;;;2527640;23;20009;-76
2023/06/22 02:44:00;;;;;;;17.80;11.93;;;;;;;;;;2531150;23;20010;-76
2023/06/22 02:45:21;;;;;;;22.15;12.82;;;;;;;;;;2518191;23;20020;-77
2023/06/22 02:46:42;;;;;;;21.75;11.88;;;;;;;;;;2514179;23;20025;-77
2023/06/22 02:48:03;;;;;;;20.15;12.45;;;;;;;;;;2525441;23;20324;-77
2023/06/22 02:49:24;;;;;;;24.08;13.23;;;;;;;;;;2530908;23;20440;-76
2023/06/22 02:50:45;;;;;;;33.50;15.20;;;;;;;;;;2524251;23;20022;-76
2023/06/22 02:52:05;;;;;;;22.33;12.50;;;;;;;;;;2532120;23;20014;-76
2023/06/22 02:53:26;;;;;;;24.70;12.73;;;;;;;;;;2532481;23;20010;-76
2023/06/22 02:54:47;;;;;;;17.23;11.98;;;;;;;;;;2532972;23;20037;-76
2023/06/22 02:56:08;;;;;;;21.67;13.40;;;;;;;;;;2517921;23;20018;-76
2023/06/22 02:57:29;;;;;;;19.23;12.43;;;;;;;;;;2515723;23;20014;-77
2023/06/22 02:58:53;;;;;;;20.27;13.02;;;;;;;;;;2529810;23;20041;-76
2023/06/22 03:00:17;;;;;;;18.13;11.23;;;;;;;;;;2519253;23;20003;-76
2023/06/22 03:01:39;;;;;;;17.85;12.38;;;;;;;;;;2513981;23;20321;-76
2023/06/22 03:03:00;;;;;;;19.25;11.95;;;;;;;;;;2514952;23;20010;-76
2023/06/22 03:04:21;;;;;;;23.92;11.90;;;;;;;;;;2526876;23;20018;-76
2023/06/22 03:05:42;;;;;;;19.00;12.07;;;;;;;;;;2519965;23;20011;-76
2023/06/22 03:07:03;;;;;;;21.40;11.90;;;;;;;;;;2527754;23;20340;-76
2023/06/22 03:08:24;;;;;;;19.75;12.77;;;;;;;;;;2534192;23;20017;-76
2023/06/22 03:09:45;;;;;;;20.60;11.60;;;;;;;;;;2533840;23;20006;-77
2023/06/22 03:11:06;;;;;;;17.30;11.57;;;;;;;;;;2518814;23;20082;-77
2023/06/22 03:12:26;;;;;;;18.60;12.70;;;;;;;;;;2515011;23;20022;-76
2023/06/22 03:13:47;;;;;;;19.20;12.32;;;;;;;;;;2528338;23;20017;-76
2023/06/22 03:15:10;;;;;;;20.60;12.70;;;;;;;;;;2519477;23;20022;-76
2023/06/22 03:16:31;;;;;;;;;;;;;;;;;;2515074;23;20018;-76
2023/06/22 03:17:51;;;;;;;19.58;12.75;;;;;;;;;;2517709;23;19901;-76
2023/06/22 03:19:13;;;;;;;22.65;13.10;;;;;;;;;;2528263;23;20013;-77
2023/06/22 03:20:34;;;;;;;19.00;12.50;;;;;;;;;;2531470;23;20014;-76
2023/06/22 03:21:55;;;;;;;21.80;11.75;;;;;;;;;;2534438;23;20009;-76
2023/06/22 03:23:16;;;;;;;19.60;12.75;;;;;;;;;;2530735;23;20010;-76
2023/06/22 03:24:38;;;;;;;20.50;12.95;;;;;;;;;;2533683;23;20010;-77
2023/06/22 03:25:59;;;;;;;22.38;12.77;;;;;;;;;;2519374;23;20058;-77
2023/06/22 03:27:21;;;;;;;21.05;12.45;;;;;;;;;;2527772;23;20037;-76
2023/06/22 03:28:42;;;;;;;21.20;12.13;;;;;;;;;;2530534;23;20089;-77
2023/06/22 03:30:03;;;;;;;17.55;11.65;;;;;;;;;;2519329;23;20014;-76
2023/06/22 03:31:24;;;;;;;23.60;12.93;;;;;;;;;;2526029;23;20459;-76
2023/06/22 03:32:46;;;;;;;21.10;12.75;;;;;;;;;;2531740;23;20013;-75
2023/06/22 03:34:07;;;;;;;22.25;12.80;;;;;;;;;;2529271;23;20006;-76
2023/06/22 03:35:28;;;;;;;19.77;12.75;;;;;;;;;;2533405;23;20013;-76
2023/06/22 03:36:49;;;;;;;17.55;11.98;;;;;;;;;;2533168;23;20009;-76
2023/06/22 03:38:10;;;;;;;24.83;13.52;;;;;;;;;;2533831;23;20042;-76
2023/06/22 03:39:31;;;;;;;22.13;13.35;;;;;;;;;;2530858;23;20017;-76
2023/06/22 03:40:52;;;;;;;20.13;12.55;;;;;;;;;;2530008;23;20013;-76
2023/06/22 03:42:13;;;;;;;20.35;12.73;;;;;;;;;;2532719;23;20014;-77
2023/06/22 03:43:34;;;;;;;20.02;12.55;;;;;;;;;;2519476;23;20321;-76
2023/06/22 03:44:55;;;;;;;21.13;11.55;;;;;;;;;;2524647;23;20072;-76
2023/06/22 03:46:16;;;;;;;22.67;13.40;;;;;;;;;;2530357;23;20022;-77
2023/06/22 03:47:37;;;;;;;21.95;12.95;;;;;;;;;;2530837;23;20451;-77
2023/06/22 03:48:58;;;;;;;25.13;13.85;;;;;;;;;;2531883;23;20025;-77
2023/06/22 03:50:20;;;;;;;19.83;12.57;;;;;;;;;;2530727;23;20406;-77
2023/06/22 03:51:41;;;;;;;;;;;;;;;;;;2531333;23;20010;-76
2023/06/22 03:53:02;;;;;;;20.98;13.13;;;;;;;;;;2518558;23;20227;-76
2023/06/22 03:54:22;;;;;;;24.27;12.90;;;;;;;;;;2526933;23;20348;-77
2023/06/22 03:55:50;;;;;;;21.05;12.10;;;;;;;;;;2533260;23;20014;-76
2023/06/22 03:57:11;;;;;;;16.70;12.00;;;;;;;;;;2532645;23;20017;-76
2023/06/22 03:58:33;;;;;;;19.25;12.30;;;;;;;;;;2531068;23;20017;-77
2023/06/22 03:59:56;;;;;;;22.83;14.38;;;;;;;;;;2517492;23;20014;-77
2023/06/22 04:01:17;;;;;;;20.90;12.80;;;;;;;;;;2526667;23;20324;-76
2023/06/22 04:02:38;;;;;;;22.88;12.80;;;;;;;;;;2533540;23;20371;-76
2023/06/22 04:03:59;;;;;;;22.13;14.35;;;;;;;;;;2529735;23;20021;-76
2023/06/22 04:05:19;;;;;;;21.20;13.10;;;;;;;;;;2532267;23;20017;-76
2023/06/22 04:06:40;;;;;;;19.88;12.65;;;;;;;;;;2519841;23;20006;-76
2023/06/22 04:08:01;;;;;;;20.38;13.38;;;;;;;;;;2525583;23;20013;-76
2023/06/22 04:09:22;;;;;;;21.17;13.90;;;;;;;;;;2518938;23;20037;-76
2023/06/22 04:10:43;;;;;;;23.15;14.05;;;;;;;;;;2513086;23;20010;-77
2023/06/22 04:12:04;;;;;;;24.95;14.40;;;;;;;;;;2527597;23;20017;-76
2023/06/22 04:13:25;;;;;;;29.17;15.40;;;;;;;;;;2530373;23;20017;-76
2023/06/22 04:14:46;;;;;;;21.48;12.85;;;;;;;;;;2534015;23;20470;-76
2023/06/22 04:16:07;;;;;;;29.73;14.90;;;;;;;;;;2516129;23;20083;-76
2023/06/22 04:17:28;;;;;;;22.52;14.23;;;;;;;;;;2517531;23;20006;-76
2023/06/22 04:18:48;;;;;;;22.60;12.68;;;;;;;;;;2526231;23;20328;-76
2023/06/22 04:20:09;;;;;;;21.92;13.15;;;;;;;;;;2534582;23;20017;-76
2023/06/22 04:21:31;;;;;;;25.17;13.23;;;;;;;;;;2530380;23;20017;-76
2023/06/22 04:22:52;;;;;;;23.92;13.52;;;;;;;;;;2531058;23;20010;-76
2023/06/22 04:24:14;;;;;;;20.63;13.32;;;;;;;;;;2531935;23;20014;-76
2023/06/22 04:25:34;;;;;;;22.52;13.57;;;;;;;;;;2532197;23;20029;-76
2023/06/22 04:26:55;;;;;;;27.55;13.98;;;;;;;;;;2532331;23;20010;-76
2023/06/22 04:28:16;;;;;;;23.02;13.07;;;;;;;;;;2530910;23;20013;-76
2023/06/22 04:29:38;;;;;;;22.05;14.15;;;;;;;;;;2533044;23;20017;-76
2023/06/22 04:31:02;;;;;;;26.42;15.27;;;;;;;;;;2530141;23;20018;-76
2023/06/22 04:32:22;;;;;;;23.98;14.30;;;;;;;;;;2529567;23;20014;-76
2023/06/22 04:33:43;;;;;;;30.25;15.45;;;;;;;;;;2531589;23;20037;-75
2023/06/22 04:35:06;;;;;;;32.35;15.80;;;;;;;;;;2527227;23;20408;-77
2023/06/22 04:36:30;;;;;;;21.75;14.38;;;;;;;;;;2516765;23;20014;-75
2023/06/22 04:37:54;;;;;;;23.45;14.30;;;;;;;;;;2517926;23;20436;-76
2023/06/22 04:39:15;;;;;;;22.55;13.05;;;;;;;;;;2525767;23;20021;-77
2023/06/22 04:40:36;;;;;;;39.03;17.35;;;;;;;;;;2513035;23;20083;-77
2023/06/22 04:42:00;;;;;;;22.95;13.93;;;;;;;;;;2525560;23;20317;-78
2023/06/22 04:43:21;;;;;;;31.20;15.23;;;;;;;;;;2517109;23;20044;-76
2023/06/22 04:44:42;;;;;;;23.77;14.18;;;;;;;;;;2525669;23;20014;-76
2023/06/22 04:46:03;;;;;;;21.88;14.18;;;;;;;;;;2517702;23;20091;-76
2023/06/22 04:47:24;;;;;;;29.17;15.00;;;;;;;;;;2512099;23;20168;-76
2023/06/22 04:48:45;;;;;;;25.50;14.27;;;;;;;;;;2526399;23;20092;-77
2023/06/22 04:50:06;;;;;;;21.55;13.50;;;;;;;;;;2532342;23;20021;-78
2023/06/22 04:51:30;;;;;;;22.00;13.60;;;;;;;;;;2516083;23;20480;-78
2023/06/22 04:52:51;;;;;;;23.95;15.52;;;;;;;;;;2514963;23;20089;-77
2023/06/22 04:54:12;;;;;;;29.13;14.90;;;;;;;;;;2527043;23;20021;-78
2023/06/22 04:55:33;;;;;;;29.83;15.07;;;;;;;;;;2532061;23;20467;-78
2023/06/22 04:56:56;;;;;;;28.65;15.82;;;;;;;;;;2530967;23;20021;-78
2023/06/22 04:58:19;;;;;;;29.23;15.40;;;;;;;;;;2513389;23;20019;-78
2023/06/22 04:59:41;;;;;;;24.88;14.77;;;;;;;;;;2526326;23;20056;-77
2023/06/22 05:01:03;;;;;;;26.40;14.30;;;;;;;;;;2529662;23;20029;-78
2023/06/22 05:02:27;;;;;;;25.60;15.23;;;;;;;;;;2531035;23;20017;-78
2023/06/22 05:03:48;;;;;;;26.98;15.77;;;;;;;;;;2529978;23;20017;-77
2023/06/22 05:05:13;;;;;;;28.75;16.50;;;;;;;;;;2528593;23;20053;-78
2023/06/22 05:06:34;;;;;;;30.35;16.40;;;;;;;;;;2518372;23;20059;-78
2023/06/22 05:07:59;;;;;;;24.13;15.07;;;;;;;;;;2515176;23;20015;-78
2023/06/22 05:09:20;;;;;;;24.08;14.45;;;;;;;;;;2526845;23;20014;-78
2023/06/22 05:10:41;;;;;;;28.20;15.40;;;;;;;;;;2515701;23;20400;-78
2023/06/22 05:12:02;;;;;;;23.67;15.25;;;;;;;;;;2516141;23;20429;-78
2023/06/22 05:13:26;;;;;;;26.55;16.17;;;;;;;;;;2526476;23;20010;-77
2023/06/22 05:14:47;;;;;;;24.88;15.02;;;;;;;;;;2518454;23;20006;-77
2023/06/22 05:16:08;;;;;;;23.02;14.77;;;;;;;;;;2526463;23;20384;-76
2023/06/22 05:17:28;;;;;;;28.50;15.73;;;;;;;;;;2533108;23;20014;-77
2023/06/22 05:18:51;;;;;;;24.10;15.13;;;;;;;;;;2532094;23;20017;-77
2023/06/22 05:20:11;;;;;;;;;;;;;;;;;;2531421;23;20466;-77
2023/06/22 05:21:32;;;;;;;28.75;16.52;;;;;;;;;;2529605;23;19937;-77
2023/06/22 05:22:53;;;;;;;25.77;15.65;;;;;;;;;;2531177;23;20316;-76
2023/06/22 05:24:14;;;;;;;21.65;14.63;;;;;;;;;;2530830;23;20010;-76
2023/06/22 05:25:35;;;;;;;26.08;16.13;;;;;;;;;;2516619;23;20006;-76
2023/06/22 05:26:56;;;;;;;30.67;16.85;;;;;;;;;;2528040;23;20010;-76
2023/06/22 05:28:22;;;;;;;26.60;16.40;;;;;;;;;;2529883;23;20006;-76
2023/06/22 05:29:43;;;;;;;23.88;14.75;;;;;;;;;;2531544;23;20029;-76
2023/06/22 05:31:04;;;;;;;33.95;18.27;;;;;;;;;;2517541;23;20687;-76
2023/06/22 05:32:25;;;;;;;27.88;15.18;;;;;;;;;;2524915;23;20014;-76
2023/06/22 05:33:46;;;;;;;24.52;14.45;;;;;;;;;;2533070;23;20010;-76
2023/06/22 05:35:07;;;;;;;27.67;15.75;;;;;;;;;;2530225;23;20020;-76
2023/06/22 05:36:28;;;;;;;25.70;15.93;;;;;;;;;;2518021;23;20010;-76
2023/06/22 05:37:49;;;;;;;24.85;15.43;;;;;;;;;;2526611;23;20452;-76
2023/06/22 05:39:12;;;;;;;23.38;13.85;;;;;;;;;;2532246;23;20024;-76
2023/06/22 05:40:33;;;;;;;25.77;16.08;;;;;;;;;;2528645;23;20014;-75
2023/06/22 05:41:54;;;;;;;38.45;18.58;;;;;;;;;;2516417;23;20025;-77
2023/06/22 05:43:15;;;;;;;23.05;14.90;;;;;;;;;;2526656;23;20014;-76
2023/06/22 05:44:37;;;;;;;27.38;16.25;;;;;;;;;;2530078;23;20010;-75
2023/06/22 05:45:58;;;;;;;26.73;15.63;;;;;;;;;;2530388;23;20013;-76
2023/06/22 05:47:19;;;;;;;23.57;15.73;;;;;;;;;;2529952;23;20010;-77
2023/06/22 05:48:40;;;;;;;26.48;17.33;;;;;;;;;;2519181;23;20436;-76
2023/06/22 05:50:06;;;;;;;29.90;16.65;;;;;;;;;;2514352;23;20014;-78
2023/06/22 05:51:27;;;;;;;25.83;16.77;;;;;;;;;;2526943;23;20014;-78
2023/06/22 05:52:48;;;;;;;26.55;16.80;;;;;;;;;;2531995;23;20010;-78
2023/06/22 05:54:08;;;;;;;24.50;16.10;;;;;;;;;;2533687;23;20022;-76
2023/06/22 05:55:29;;;;;;;31.75;16.80;;;;;;;;;;2532775;23;20010;-76
2023/06/22 05:56:50;;;;;;;23.23;16.25;;;;;;;;;;2533434;23;20324;-76
2023/06/22 05:58:13;;;;;;;26.42;16.40;;;;;;;;;;2530697;23;20081;-76
2023/06/22 05:59:33;;;;;;;29.30;17.27;;;;;;;;;;2532203;23;20316;-76
2023/06/22 06:00:54;;;;;;;26.38;16.42;;;;;;;;;;2531694;23;20021;-76
2023/06/22 06:02:15;;;;;;;25.92;16.38;;;;;;;;;;2533543;23;20037;-76
2023/06/22 06:03:41;;;;;;;29.88;17.55;;;;;;;;;;2532901;23;20013;-75
2023/06/22 06:05:02;;;;;;;31.38;16.77;;;;;;;;;;2529821;23;20447;-75
2023/06/22 06:06:28;;;;;;;31.52;18.08;;;;;;;;;;2518094;23;20014;-75
2023/06/22 06:07:49;;;;;;;26.90;16.55;;;;;;;;;;2528797;23;20006;-76
2023/06/22 06:09:11;;;;;;;30.63;17.92;;;;;;;;;;2532702;23;20451;-76
2023/06/22 06:10:32;;;;;;;26.17;16.85;;;;;;;;;;2531347;23;20010;-76
2023/06/22 06:11:53;;;;;;;37.92;17.23;;;;;;;;;;2533173;23;20017;-76
2023/06/22 06:13:14;;;;;;;49.05;19.42;;;;;;;;;;2518826;23;20344;-76
2023/06/22 06:14:35;;;;;;;80.03;23.77;;;;;;;;;;2527170;23;20010;-76
2023/06/22 06:15:57;;;;;;;102.72;26.05;;;;;;;;;;2530186;23;20009;-76
2023/06/22 06:17:17;;;;;;;62.13;19.20;;;;;;;;;;2532039;23;20016;-76
2023/06/22 06:18:38;;;;;;;35.50;18.27;;;;;;;;;;2532208;23;20021;-76
2023/06/22 06:20:00;;;;;;;29.88;16.20;;;;;;;;;;2518035;23;20097;-76
2023/06/22 06:21:21;;;;;;;26.52;16.88;;;;;;;;;;2524059;23;20025;-76
2023/06/22 06:22:42;;;;;;;26.63;18.17;;;;;;;;;;2531994;23;20332;-76
2023/06/22 06:24:03;;;;;;;29.08;18.02;;;;;;;;;;2519567;23;20392;-76
2023/06/22 06:25:24;;;;;;;28.30;17.30;;;;;;;;;;2527237;23;20332;-76
2023/06/22 06:26:45;;;;;;;25.77;17.20;;;;;;;;;;2519116;23;20017;-76
2023/06/22 06:28:06;;;;;;;28.90;17.13;;;;;;;;;;2527846;23;20009;-76
2023/06/22 06:29:27;;;;;;;32.07;18.13;;;;;;;;;;2531071;23;20010;-77
2023/06/22 06:30:48;;;;;;;23.85;16.85;;;;;;;;;;2532400;23;20364;-76
2023/06/22 06:32:09;;;;;;;25.88;16.67;;;;;;;;;;2532798;23;20031;-76
2023/06/22 06:33:31;;;;;;;27.45;18.40;;;;;;;;;;2517816;23;20014;-76
2023/06/22 06:34:52;;;;;;;29.92;18.30;;;;;;;;;;2525838;23;20029;-69
2023/06/22 06:36:13;;;;;;;27.45;17.92;;;;;;;;;;2526374;23;20017;-69
2023/06/22 06:37:37;;;;;;;30.45;17.52;;;;;;;;;;2531876;23;20064;-69
2023/06/22 06:38:58;;;;;;;31.08;17.65;;;;;;;;;;2527928;23;20013;-69
2023/06/22 06:40:19;;;;;;;50.53;20.63;;;;;;;;;;2513656;23;20026;-69
2023/06/22 06:41:40;;;;;;;33.65;19.52;;;;;;;;;;2520470;23;20181;-69
2023/06/22 06:43:01;;;;;;;27.33;17.10;;;;;;;;;;2530658;23;20118;-69
2023/06/22 06:44:22;;;;;;;44.40;20.83;;;;;;;;;;2530575;23;20025;-69
2023/06/22 06:45:43;;;;;;;30.90;17.05;;;;;;;;;;2533244;23;20242;-69
2023/06/22 06:47:04;;;;;;;32.90;17.35;;;;;;;;;;2532848;23;20010;-69
2023/06/22 06:48:25;;;;;;;30.80;17.67;;;;;;;;;;2531874;23;20014;-68
2023/06/22 06:49:46;;;;;;;33.15;18.30;;;;;;;;;;2531358;23;20796;-70
2023/06/22 06:51:09;;;;;;;30.23;19.20;;;;;;;;;;2517270;23;20109;-69
2023/06/22 06:52:30;;;;;;;27.63;17.10;;;;;;;;;;2514632;23;20007;-69
2023/06/22 06:53:51;;;;;;;23.90;16.75;;;;;;;;;;2526251;23;20014;-69
2023/06/22 06:55:12;;;;;;;23.65;16.95;;;;;;;;;;2530517;23;20422;-69
2023/06/22 06:56:33;;;;;;;26.95;17.27;;;;;;;;;;2531288;23;20097;-69
2023/06/22 06:57:54;;;;;;;25.73;16.40;;;;;;;;;;2529981;23;20017;-69
2023/06/22 06:59:15;;;;;;;26.17;17.63;;;;;;;;;;2530568;23;20339;-68
2023/06/22 07:00:36;;;;;;;26.10;18.10;;;;;;;;;;2531874;23;20010;-69
2023/06/22 07:01:57;;;;;;;27.40;17.80;;;;;;;;;;2516642;23;20006;-69
2023/06/22 07:03:18;;;;;;;26.48;17.92;;;;;;;;;;2515484;23;20011;-69
2023/06/22 07:04:39;;;;;;;26.67;18.02;;;;;;;;;;2525137;23;20348;-69
2023/06/22 07:06:00;;;;;;;28.70;20.08;;;;;;;;;;2532976;23;20005;-69
2023/06/22 07:07:21;;;;;;;26.67;17.73;;;;;;;;;;2529353;23;20010;-69
2023/06/22 07:08:42;;;;;;;24.90;17.20;;;;;;;;;;2517365;23;20011;-69
2023/06/22 07:10:04;;;;;;;28.75;18.83;;;;;;;;;;2525706;23;20006;-69
2023/06/22 07:11:25;;;;;;;;;;;;;;;;;;2529491;23;20091;-69
2023/06/22 07:12:46;;;;;;;28.38;17.02;;;;;;;;;;2517155;23;19960;-69
2023/06/22 07:14:07;;;;;;;25.67;17.33;;;;;;;;;;2525980;23;20010;-69
2023/06/22 07:15:28;;;;;;;26.05;17.70;;;;;;;;;;2532289;23;20010;-69
2023/06/22 07:16:49;;;;;;;28.55;18.00;;;;;;;;;;2517939;23;20015;-68
2023/06/22 07:18:10;;;;;;;36.75;19.33;;;;;;;;;;2523205;23;20432;-76
2023/06/22 07:19:32;;;;;;;26.60;18.02;;;;;;;;;;2533415;23;20062;-77
2023/06/22 07:20:53;;;;;;;27.00;17.33;;;;;;;;;;2529083;23;20297;-74
2023/06/22 07:22:14;;;;;;;27.52;17.85;;;;;;;;;;2519726;23;20408;-76
2023/06/22 07:23:35;;;;;;;30.75;19.25;;;;;;;;;;2514094;23;20014;-75
2023/06/22 07:24:56;;;;;;;24.60;17.60;;;;;;;;;;2527524;23;20017;-77
2023/06/22 07:26:17;;;;;;;28.40;18.60;;;;;;;;;;2532968;23;20017;-75
2023/06/22 07:27:39;;;;;;;27.65;17.95;;;;;;;;;;2519829;23;20010;-76
2023/06/22 07:29:00;;;;;;;26.17;17.48;;;;;;;;;;2525053;23;20018;-78
2023/06/22 07:30:21;;;;;;;25.08;17.63;;;;;;;;;;2531529;23;20010;-77
2023/06/22 07:31:42;;;;;;;25.77;16.90;;;;;;;;;;2531421;23;20393;-76
2023/06/22 07:33:04;;;;;;;26.05;18.02;;;;;;;;;;2534166;23;20049;-78
2023/06/22 07:34:25;;;;;;;27.08;17.70;;;;;;;;;;2528951;23;20017;-78
2023/06/22 07:35:47;;;;;;;24.40;17.92;;;;;;;;;;2519799;23;20022;-77
2023/06/22 07:37:08;;;;;;;24.70;17.40;;;;;;;;;;2527501;23;20446;-79
2023/06/22 07:38:29;;;;;;;25.15;18.73;;;;;;;;;;2533415;23;20033;-76
2023/06/22 07:39:53;;;;;;;24.90;17.00;;;;;;;;;;2516919;23;20041;-75
2023/06/22 07:41:14;;;;;;;25.95;18.60;;;;;;;;;;2526676;23;20024;-76
2023/06/22 07:42:35;;;;;;;26.98;17.65;;;;;;;;;;2518917;23;20010;-74
2023/06/22 07:43:57;;;;;;;23.05;16.33;;;;;;;;;;2528864;23;20010;-74
2023/06/22 07:45:17;;;;;;;25.80;16.87;;;;;;;;;;2516738;23;20013;-74
2023/06/22 07:46:38;;;;;;;28.63;17.48;;;;;;;;;;2526422;23;20032;-74
2023/06/22 07:47:59;;;;;;;26.15;16.90;;;;;;;;;;2533965;23;20006;-73
2023/06/22 07:49:20;;;;;;;26.98;17.85;;;;;;;;;;2518630;23;20014;-75
2023/06/22 07:50:41;;;;;;;32.72;18.10;;;;;;;;;;2525740;23;20557;-74
2023/06/22 07:52:02;;;;;;;34.05;20.92;;;;;;;;;;2530944;23;20164;-73
2023/06/22 07:53:23;;;;;;;27.30;18.20;;;;;;;;;;2531008;23;20506;-76
2023/06/22 07:54:44;;;;;;;25.42;17.63;;;;;;;;;;2532211;23;20018;-77
2023/06/22 07:56:06;;;;;;;26.52;17.40;;;;;;;;;;2528912;23;20017;-77
2023/06/22 07:57:33;;;;;;;28.25;17.55;;;;;;;;;;2530627;23;20320;-75
2023/06/22 07:58:54;;;;;;;25.52;16.52;;;;;;;;;;2530286;23;20014;-75